Time;durP1;ratioP1;P1;durP2;ratioP2;P2;SDS_P1;SDS_P2;PMS_P1;PMS_P2;Temp;Humidity;BMP_temperature;BMP_pressure;BME280_temperature;BME280_humidity;BME280_pressure;Samples;Min_cycle;Max_cycle;Signal;HPM_P1;HPM_P2
2022/08/05 00:00:16;;;;;;;47.90;19.45;;;;;;;;;;6147991;23;20029;-64
2022/08/05 00:02:52;;;;;;;46.00;20.25;;;;;;;;;;6149491;23;20025;-63
2022/08/05 00:05:20;;;;;;;42.58;20.15;;;;;;;;;;6148150;23;20028;-64
2022/08/05 00:08:08;;;;;;;47.53;20.20;;;;;;;;;;6148415;23;20104;-49
2022/08/05 00:11:02;;;;;;;50.38;20.88;;;;;;;;;;6148920;23;20029;-52
2022/08/05 00:13:33;;;;;;;54.05;21.83;;;;;;;;;;6147936;23;20022;-47
2022/08/05 00:16:10;;;;;;;45.08;19.75;;;;;;;;;;6147718;23;20047;-48
2022/08/05 00:18:39;;;;;;;55.47;21.08;;;;;;;;;;6149149;23;20036;-54
2022/08/05 00:21:08;;;;;;;39.92;20.90;;;;;;;;;;6148583;23;20505;-53
2022/08/05 00:23:54;;;;;;;47.38;21.60;;;;;;;;;;6148195;23;20100;-50
2022/08/05 00:26:37;;;;;;;41.95;19.80;;;;;;;;;;6148509;23;20021;-67
2022/08/05 00:29:18;;;;;;;44.35;22.38;;;;;;;;;;6149276;23;20057;-64
2022/08/05 00:31:51;;;;;;;49.78;22.88;;;;;;;;;;6148482;23;20029;-63
2022/08/05 00:34:40;;;;;;;52.60;21.98;;;;;;;;;;6147807;23;20033;-64
2022/08/05 00:37:28;;;;;;;52.08;22.42;;;;;;;;;;6148192;23;20609;-64
2022/08/05 00:40:20;;;;;;;68.15;23.77;;;;;;;;;;6148910;23;20056;-64
2022/08/05 00:43:01;;;;;;;58.92;21.70;;;;;;;;;;6148739;23;20036;-62
2022/08/05 00:45:42;;;;;;;153.98;26.95;;;;;;;;;;6148715;23;20021;-62
2022/08/05 00:48:27;;;;;;;293.73;30.67;;;;;;;;;;6148116;23;20021;-62
2022/08/05 00:51:17;;;;;;;163.70;27.17;;;;;;;;;;6148697;23;20022;-62
2022/08/05 00:54:05;;;;;;;248.30;31.42;;;;;;;;;;6147859;23;20105;-62
2022/08/05 00:56:54;;;;;;;252.30;31.63;;;;;;;;;;6148055;23;20061;-61
2022/08/05 00:59:21;;;;;;;317.17;28.92;;;;;;;;;;6148868;23;20021;-62
2022/08/05 01:02:10;;;;;;;106.78;25.38;;;;;;;;;;6149594;23;20057;-65
2022/08/05 01:04:37;;;;;;;138.57;15.88;;;;;;;;;;6150404;23;20064;-64
2022/08/05 01:07:16;;;;;;;114.47;15.48;;;;;;;;;;6150563;23;20402;-64
2022/08/05 01:09:44;;;;;;;;;;;;;;;;;;6149906;23;20033;-63
2022/08/05 01:12:13;;;;;;;43.00;16.40;;;;;;;;;;6149657;23;19920;-63
2022/08/05 01:14:59;;;;;;;52.42;17.83;;;;;;;;;;6149314;23;20033;-63
2022/08/05 01:17:36;;;;;;;51.45;20.98;;;;;;;;;;6150527;23;20076;-65
2022/08/05 01:20:26;;;;;;;59.03;20.88;;;;;;;;;;6150004;23;20030;-49
2022/08/05 01:23:06;;;;;;;52.35;20.92;;;;;;;;;;6149668;23;20033;-62
2022/08/05 01:25:48;;;;;;;47.53;22.42;;;;;;;;;;6148478;23;20029;-62
2022/08/05 01:28:22;;;;;;;57.83;22.63;;;;;;;;;;6150874;23;20029;-62
2022/08/05 01:30:59;;;;;;;68.15;22.35;;;;;;;;;;6149965;23;20021;-62
2022/08/05 01:33:32;;;;;;;54.80;22.52;;;;;;;;;;6150189;23;20096;-62
2022/08/05 01:36:09;;;;;;;70.45;23.02;;;;;;;;;;6149964;23;20088;-62
2022/08/05 01:38:48;;;;;;;100.68;21.23;;;;;;;;;;6150652;23;20084;-62
2022/08/05 01:41:23;;;;;;;170.40;23.80;;;;;;;;;;6125637;23;20029;-62
2022/08/05 01:43:52;;;;;;;103.15;22.02;;;;;;;;;;6149867;23;20420;-62
2022/08/05 01:46:19;;;;;;;;;;;;;;;;;;6149746;23;20026;-62
2022/08/05 01:49:11;;;;;;;332.88;25.58;;;;;;;;;;6148937;23;19923;-63
2022/08/05 01:51:53;;;;;;;191.98;22.25;;;;;;;;;;6150067;23;20029;-63
2022/08/05 01:54:32;;;;;;;173.27;18.50;;;;;;;;;;6149609;23;20030;-62
2022/08/05 01:57:13;;;;;;;135.40;22.52;;;;;;;;;;6125727;23;20061;-62
2022/08/05 02:00:11;;;;;;;174.20;25.10;;;;;;;;;;6149947;23;20100;-49
2022/08/05 02:02:41;;;;;;;58.75;20.05;;;;;;;;;;6148378;23;20032;-47
2022/08/05 02:05:22;;;;;;;54.05;20.70;;;;;;;;;;6148692;23;20036;-47
2022/08/05 02:07:50;;;;;;;42.08;18.38;;;;;;;;;;6148476;23;20021;-51
2022/08/05 02:10:33;;;;;;;53.00;21.15;;;;;;;;;;6149000;23;20252;-49
2022/08/05 02:13:13;;;;;;;67.88;21.92;;;;;;;;;;6148954;23;20021;-48
2022/08/05 02:15:50;;;;;;;66.13;22.85;;;;;;;;;;6149055;23;20100;-52
2022/08/05 02:18:22;;;;;;;54.58;19.80;;;;;;;;;;6149533;23;20029;-62
2022/08/05 02:21:09;;;;;;;55.78;18.35;;;;;;;;;;6149023;23;20029;-62
2022/08/05 02:23:52;;;;;;;64.85;20.17;;;;;;;;;;6150232;23;20021;-62
2022/08/05 02:26:39;;;;;;;55.38;18.50;;;;;;;;;;6148643;23;20101;-63
2022/08/05 02:29:21;;;;;;;54.10;19.42;;;;;;;;;;6149876;23;20072;-62
2022/08/05 02:32:18;;;;;;;51.85;19.85;;;;;;;;;;6149169;23;20112;-62
2022/08/05 02:35:01;;;;;;;70.82;19.92;;;;;;;;;;6149426;23;20031;-62
2022/08/05 02:37:41;;;;;;;46.03;17.25;;;;;;;;;;6149930;23;20064;-68
2022/08/05 02:40:16;;;;;;;68.00;14.32;;;;;;;;;;6149174;23;20858;-68
2022/08/05 02:42:51;;;;;;;40.53;13.35;;;;;;;;;;6149530;23;20080;-68
2022/08/05 02:45:23;;;;;;;74.65;15.32;;;;;;;;;;6146900;23;20033;-67
2022/08/05 02:48:17;;;;;;;28.73;13.38;;;;;;;;;;6148423;23;20018;-67
2022/08/05 02:50:46;;;;;;;;;;;;;;;;;;6150260;23;20045;-68
2022/08/05 02:53:22;;;;;;;29.30;11.70;;;;;;;;;;6150132;23;19967;-68
2022/08/05 02:55:52;;;;;;;30.80;12.13;;;;;;;;;;6148157;23;20076;-60
2022/08/05 02:58:26;;;;;;;34.25;13.20;;;;;;;;;;6149970;23;20026;-60
2022/08/05 03:01:02;;;;;;;32.58;13.98;;;;;;;;;;6149649;23;20021;-60
2022/08/05 03:03:30;;;;;;;33.17;13.02;;;;;;;;;;6149273;23;20040;-60
2022/08/05 03:06:19;;;;;;;30.00;13.05;;;;;;;;;;6148036;23;20096;-60
2022/08/05 03:09:13;;;;;;;42.30;13.75;;;;;;;;;;6127633;23;20031;-60
2022/08/05 03:11:43;;;;;;;41.42;14.30;;;;;;;;;;6149208;23;20047;-62
2022/08/05 03:14:24;;;;;;;38.83;14.68;;;;;;;;;;6149928;23;20026;-46
2022/08/05 03:16:52;;;;;;;40.38;14.90;;;;;;;;;;6147507;23;20077;-48
2022/08/05 03:19:26;;;;;;;52.38;14.82;;;;;;;;;;6149637;23;20366;-46
2022/08/05 03:22:00;;;;;;;47.78;14.40;;;;;;;;;;6147214;23;20025;-49
2022/08/05 03:24:50;;;;;;;32.70;10.40;;;;;;;;;;6148732;23;20033;-49
2022/08/05 03:27:24;;;;;;;22.95;8.88;;;;;;;;;;6148423;23;20084;-47
2022/08/05 03:30:19;;;;;;;31.77;11.80;;;;;;;;;;6148692;23;20029;-60
2022/08/05 03:32:56;;;;;;;28.30;11.52;;;;;;;;;;6149503;23;20032;-60
2022/08/05 03:35:32;;;;;;;27.48;11.15;;;;;;;;;;6148607;23;20029;-61
2022/08/05 03:37:59;;;;;;;29.35;11.85;;;;;;;;;;6147750;23;20328;-60
2022/08/05 03:40:27;;;;;;;37.88;12.30;;;;;;;;;;6122257;23;20037;-61
2022/08/05 03:43:02;;;;;;;31.48;10.40;;;;;;;;;;6125498;23;20056;-60
2022/08/05 03:45:50;;;;;;;24.42;10.40;;;;;;;;;;6149056;23;20022;-61
2022/08/05 03:48:28;;;;;;;29.13;11.60;;;;;;;;;;6148669;23;20354;-52
2022/08/05 03:51:10;;;;;;;22.27;10.13;;;;;;;;;;6148808;23;20021;-60
2022/08/05 03:54:12;;;;;;;25.38;9.98;;;;;;;;;;6148298;23;20060;-60
2022/08/05 03:57:01;;;;;;;31.63;11.10;;;;;;;;;;6148662;23;20249;-60
2022/08/05 03:59:50;;;;;;;21.38;8.73;;;;;;;;;;6148883;23;20071;-60
2022/08/05 04:02:23;;;;;;;24.33;9.40;;;;;;;;;;6148829;23;20067;-60
2022/08/05 04:05:12;;;;;;;26.02;9.95;;;;;;;;;;6148665;23;20490;-67
2022/08/05 04:07:40;;;;;;;26.42;10.98;;;;;;;;;;6150292;23;20076;-62
2022/08/05 04:10:25;;;;;;;30.08;11.40;;;;;;;;;;6148387;23;20471;-64
2022/08/05 04:12:54;;;;;;;27.95;10.80;;;;;;;;;;6148859;23;20025;-64
2022/08/05 04:15:30;;;;;;;23.77;9.80;;;;;;;;;;6149779;23;20021;-64
2022/08/05 04:18:05;;;;;;;25.83;10.40;;;;;;;;;;6149167;23;20359;-64
2022/08/05 04:20:52;;;;;;;32.13;10.48;;;;;;;;;;6148263;23;20344;-65
2022/08/05 04:23:27;;;;;;;31.23;10.25;;;;;;;;;;6148798;23;20463;-68
2022/08/05 04:26:28;;;;;;;32.00;11.10;;;;;;;;;;6149251;23;20028;-64
2022/08/05 04:28:58;;;;;;;32.90;10.85;;;;;;;;;;6148620;23;20493;-64
2022/08/05 04:31:33;;;;;;;35.20;11.82;;;;;;;;;;6149215;23;20032;-64
2022/08/05 04:34:05;;;;;;;29.92;11.80;;;;;;;;;;6149574;23;20089;-65
2022/08/05 04:36:52;;;;;;;26.10;10.00;;;;;;;;;;6150108;23;20021;-63
2022/08/05 04:39:26;;;;;;;31.38;10.07;;;;;;;;;;6151456;23;20379;-64
2022/08/05 04:41:54;;;;;;;22.88;8.48;;;;;;;;;;6150284;23;20026;-68
2022/08/05 04:44:22;;;;;;;33.40;8.43;;;;;;;;;;6151988;23;20025;-65
2022/08/05 04:47:00;;;;;;;22.52;7.80;;;;;;;;;;6150798;23;20018;-48
2022/08/05 04:49:36;;;;;;;22.25;7.60;;;;;;;;;;6151802;23;20394;-49
2022/08/05 04:52:30;;;;;;;17.55;8.65;;;;;;;;;;6129790;23;20096;-50
2022/08/05 04:55:00;;;;;;;18.67;5.60;;;;;;;;;;6151456;23;20025;-47
2022/08/05 04:57:43;;;;;;;23.15;7.15;;;;;;;;;;6151550;23;20025;-48
2022/08/05 05:00:17;;;;;;;20.20;5.65;;;;;;;;;;6150361;23;20032;-66
2022/08/05 05:02:52;;;;;;;20.85;5.28;;;;;;;;;;6150818;23;20550;-65
2022/08/05 05:05:19;;;;;;;21.75;5.90;;;;;;;;;;6151258;23;20403;-65
2022/08/05 05:07:55;;;;;;;20.65;5.40;;;;;;;;;;6149698;23;20517;-65
2022/08/05 05:10:30;;;;;;;18.77;5.60;;;;;;;;;;6151546;23;20017;-65
2022/08/05 05:13:00;;;;;;;17.35;5.85;;;;;;;;;;6151598;23;20032;-65
2022/08/05 05:15:30;;;;;;;17.58;5.72;;;;;;;;;;6151471;23;20029;-65
2022/08/05 05:18:30;;;;;;;19.40;5.80;;;;;;;;;;6151250;23;20406;-60
2022/08/05 05:21:00;;;;;;;17.77;5.00;;;;;;;;;;6149610;23;20791;-61
2022/08/05 05:23:41;;;;;;;19.65;5.93;;;;;;;;;;6150959;23;20025;-68
2022/08/05 05:26:29;;;;;;;25.08;4.78;;;;;;;;;;6151162;23;20105;-68
2022/08/05 05:29:09;;;;;;;16.02;5.00;;;;;;;;;;6150958;23;20108;-69
2022/08/05 05:31:41;;;;;;;20.95;4.10;;;;;;;;;;6150257;23;20080;-68
2022/08/05 05:34:17;;;;;;;19.90;5.25;;;;;;;;;;6127231;23;20021;-69
2022/08/05 05:36:52;;;;;;;22.13;5.32;;;;;;;;;;6149289;23;20029;-65
2022/08/05 05:39:27;;;;;;;28.40;4.18;;;;;;;;;;6150247;23;20553;-65
2022/08/05 05:42:01;;;;;;;25.45;5.20;;;;;;;;;;6150679;23;20024;-61
2022/08/05 05:44:35;;;;;;;17.20;4.70;;;;;;;;;;6151136;23;20032;-60
2022/08/05 05:47:10;;;;;;;20.33;5.00;;;;;;;;;;6126194;23;20029;-60
2022/08/05 05:49:48;;;;;;;22.85;4.43;;;;;;;;;;6151061;23;20101;-60
2022/08/05 05:52:27;;;;;;;20.15;4.00;;;;;;;;;;6149803;23;20100;-61
2022/08/05 05:55:08;;;;;;;22.00;4.35;;;;;;;;;;6148726;23;20025;-62
2022/08/05 05:57:45;;;;;;;23.00;4.80;;;;;;;;;;6150204;23;20359;-61
2022/08/05 06:00:19;;;;;;;21.88;4.60;;;;;;;;;;6150718;23;20541;-65
2022/08/05 06:02:53;;;;;;;29.08;4.55;;;;;;;;;;6149983;23;20079;-65
2022/08/05 06:05:56;;;;;;;17.20;4.35;;;;;;;;;;6150513;23;20028;-65
2022/08/05 06:08:24;;;;;;;28.63;5.28;;;;;;;;;;6149039;23;20080;-65
2022/08/05 06:11:06;;;;;;;22.95;4.82;;;;;;;;;;6150342;23;20025;-65
2022/08/05 06:13:38;;;;;;;20.70;4.15;;;;;;;;;;6150101;23;20023;-50
2022/08/05 06:16:19;;;;;;;17.67;4.43;;;;;;;;;;6149973;23;20079;-65
2022/08/05 06:18:58;;;;;;;14.57;3.90;;;;;;;;;;6148957;23;20526;-65
2022/08/05 06:21:34;;;;;;;17.58;3.45;;;;;;;;;;6149579;23;20497;-66
2022/08/05 06:24:18;;;;;;;21.67;3.97;;;;;;;;;;6149762;23;20497;-65
2022/08/05 06:26:53;;;;;;;15.30;4.25;;;;;;;;;;6150218;23;20022;-64
2022/08/05 06:29:21;;;;;;;18.95;3.67;;;;;;;;;;6150487;23;20029;-65
2022/08/05 06:32:10;;;;;;;21.50;3.55;;;;;;;;;;6149731;23;20053;-68
2022/08/05 06:34:52;;;;;;;17.08;3.33;;;;;;;;;;6149576;23;20022;-65
2022/08/05 06:37:22;;;;;;;20.42;3.85;;;;;;;;;;6149471;23;20025;-67
2022/08/05 06:40:19;;;;;;;14.45;3.63;;;;;;;;;;6149142;23;20546;-68
2022/08/05 06:42:54;;;;;;;15.80;3.65;;;;;;;;;;6149050;23;20033;-67
2022/08/05 06:45:28;;;;;;;15.50;3.13;;;;;;;;;;6149094;23;20025;-67
2022/08/05 06:48:15;;;;;;;17.67;3.30;;;;;;;;;;6150068;23;20028;-68
2022/08/05 06:51:09;;;;;;;18.60;3.72;;;;;;;;;;6149096;23;20343;-64
2022/08/05 06:53:51;;;;;;;20.42;3.75;;;;;;;;;;6147904;23;20022;-66
2022/08/05 06:56:29;;;;;;;;;;;;;;;;;;6150769;23;20049;-65
2022/08/05 06:59:00;;;;;;;15.93;3.40;;;;;;;;;;6148673;23;19947;-65
2022/08/05 07:01:37;;;;;;;19.08;3.72;;;;;;;;;;6149030;23;20104;-67
2022/08/05 07:04:08;;;;;;;21.83;3.65;;;;;;;;;;6150383;23;20056;-65
2022/08/05 07:06:52;;;;;;;15.52;3.88;;;;;;;;;;6149363;23;20022;-66
2022/08/05 07:09:19;;;;;;;15.57;2.80;;;;;;;;;;6151376;23;20080;-67
2022/08/05 07:11:58;;;;;;;13.68;2.97;;;;;;;;;;6150616;23;20080;-61
2022/08/05 07:17:20;;;;;;;17.10;2.83;;;;;;;;;;6148973;23;20481;-60
2022/08/05 07:20:07;;;;;;;10.63;2.63;;;;;;;;;;6149382;23;20100;-60
2022/08/05 07:22:59;;;;;;;20.00;3.65;;;;;;;;;;6148157;23;20093;-60
2022/08/05 07:25:38;;;;;;;10.40;3.13;;;;;;;;;;6148472;23;20092;-60
2022/08/05 07:28:23;;;;;;;15.00;2.83;;;;;;;;;;6149737;23;20096;-62
2022/08/05 07:30:52;;;;;;;16.40;2.78;;;;;;;;;;6148829;23;20359;-63
2022/08/05 07:33:26;;;;;;;15.40;2.67;;;;;;;;;;6149269;23;20466;-63
2022/08/05 07:36:03;;;;;;;11.43;3.08;;;;;;;;;;6148484;23;20025;-62
2022/08/05 07:38:47;;;;;;;19.05;3.15;;;;;;;;;;6148795;23;20017;-63
2022/08/05 07:41:24;;;;;;;17.88;2.90;;;;;;;;;;6149279;23;20072;-62
2022/08/05 07:44:18;;;;;;;17.35;2.70;;;;;;;;;;6149075;23;20092;-63
2022/08/05 07:46:47;;;;;;;9.73;2.63;;;;;;;;;;6149671;23;20025;-67
2022/08/05 07:49:21;;;;;;;14.85;3.33;;;;;;;;;;6149269;23;20542;-61
2022/08/05 07:51:48;;;;;;;9.05;2.28;;;;;;;;;;6148397;23;20525;-61
2022/08/05 07:54:25;;;;;;;15.15;2.35;;;;;;;;;;6150197;23;20048;-61
2022/08/05 07:57:07;;;;;;;7.78;2.40;;;;;;;;;;6148957;23;20025;-60
2022/08/05 08:00:00;;;;;;;19.92;2.75;;;;;;;;;;6148910;23;20400;-60
2022/08/05 08:03:02;;;;;;;10.63;2.20;;;;;;;;;;6149507;23;20052;-60
2022/08/05 08:05:42;;;;;;;13.18;2.58;;;;;;;;;;6148312;23;20455;-63
2022/08/05 08:08:16;;;;;;;15.18;2.90;;;;;;;;;;6150402;23;20026;-47
2022/08/05 08:10:46;;;;;;;12.20;2.58;;;;;;;;;;6150965;23;20471;-47
2022/08/05 08:13:15;;;;;;;12.18;2.40;;;;;;;;;;6149749;23;20069;-47
2022/08/05 08:16:09;;;;;;;9.82;2.55;;;;;;;;;;6131622;23;20378;-47
2022/08/05 08:18:56;;;;;;;11.00;2.25;;;;;;;;;;6150999;23;20366;-51
2022/08/05 08:21:32;;;;;;;10.65;2.13;;;;;;;;;;6150880;23;20037;-51
2022/08/05 08:24:12;;;;;;;16.55;2.55;;;;;;;;;;6149808;23;20095;-66
2022/08/05 08:27:07;;;;;;;9.75;2.08;;;;;;;;;;6150934;23;20059;-49
2022/08/05 08:29:34;;;;;;;13.20;2.80;;;;;;;;;;6149068;23;20032;-46
2022/08/05 08:32:28;;;;;;;13.43;2.28;;;;;;;;;;6151470;23;20100;-47
2022/08/05 08:34:59;;;;;;;12.02;2.20;;;;;;;;;;6150809;23;20021;-48
2022/08/05 08:37:39;;;;;;;12.38;1.88;;;;;;;;;;6150858;23;20127;-47
2022/08/05 08:40:11;;;;;;;10.50;2.10;;;;;;;;;;6151502;23;20048;-46
2022/08/05 08:42:47;;;;;;;8.38;1.75;;;;;;;;;;6149873;23;20057;-46
2022/08/05 08:45:21;;;;;;;9.75;2.25;;;;;;;;;;6152306;23;20080;-70
2022/08/05 08:47:57;;;;;;;9.60;2.53;;;;;;;;;;6125660;23;20022;-70
2022/08/05 08:50:40;;;;;;;9.13;1.90;;;;;;;;;;6151470;23;20084;-70
2022/08/05 08:53:36;;;;;;;3.47;1.42;;;;;;;;;;6151169;23;20354;-70
2022/08/05 08:56:10;;;;;;;10.93;2.58;;;;;;;;;;6151183;23;20198;-70
2022/08/05 08:58:44;;;;;;;9.48;1.67;;;;;;;;;;6150866;23;20028;-71
2022/08/05 09:01:15;;;;;;;8.27;1.85;;;;;;;;;;6151299;23;20021;-66
2022/08/05 09:03:51;;;;;;;8.02;1.70;;;;;;;;;;6151518;23;20027;-61
2022/08/05 09:06:27;;;;;;;7.15;1.55;;;;;;;;;;6150789;23;20800;-61
2022/08/05 09:08:57;;;;;;;10.23;1.48;;;;;;;;;;6150365;23;20025;-61
2022/08/05 09:11:24;;;;;;;11.70;1.95;;;;;;;;;;6149250;23;20089;-62
2022/08/05 09:14:20;;;;;;;5.00;1.50;;;;;;;;;;6151287;23;20404;-61
2022/08/05 09:17:08;;;;;;;12.10;1.92;;;;;;;;;;6151157;23;20565;-60
2022/08/05 09:20:02;;;;;;;19.42;2.28;;;;;;;;;;6150596;23;20456;-64
2022/08/05 09:22:50;;;;;;;7.13;1.77;;;;;;;;;;6150896;23;20063;-71
2022/08/05 09:25:49;;;;;;;8.48;1.40;;;;;;;;;;6150833;23;20017;-71
2022/08/05 09:28:30;;;;;;;10.63;1.67;;;;;;;;;;6151610;23;20026;-70
2022/08/05 09:31:07;;;;;;;4.63;1.40;;;;;;;;;;6151348;23;20022;-71
2022/08/05 09:33:59;;;;;;;7.63;1.58;;;;;;;;;;6151951;23;20100;-71
2022/08/05 09:36:42;;;;;;;4.95;1.42;;;;;;;;;;6151402;23;20029;-46
2022/08/05 09:39:23;;;;;;;8.13;1.38;;;;;;;;;;6151684;23;20498;-64
2022/08/05 09:42:14;;;;;;;4.60;1.63;;;;;;;;;;6151043;23;20350;-64
2022/08/05 09:44:54;;;;;;;7.32;1.67;;;;;;;;;;6150932;23;20018;-64
2022/08/05 09:47:49;;;;;;;9.40;1.67;;;;;;;;;;6149844;23;20355;-64
2022/08/05 09:50:33;;;;;;;6.00;1.23;;;;;;;;;;6148396;23;20025;-65
2022/08/05 09:53:11;;;;;;;7.43;1.63;;;;;;;;;;6149067;23;20025;-65
2022/08/05 09:55:57;;;;;;;12.32;1.77;;;;;;;;;;6148736;23;20033;-50
2022/08/05 09:58:39;;;;;;;3.75;1.48;;;;;;;;;;6150219;23;20088;-66
2022/08/05 10:01:11;;;;;;;3.20;1.00;;;;;;;;;;6150639;23;20018;-66
2022/08/05 10:04:01;;;;;;;8.82;1.20;;;;;;;;;;6150493;23;20076;-65
2022/08/05 10:06:29;;;;;;;4.47;1.20;;;;;;;;;;6150138;23;20056;-66
2022/08/05 10:09:11;;;;;;;4.80;1.20;;;;;;;;;;6149514;23;20026;-65
2022/08/05 10:11:54;;;;;;;8.18;1.42;;;;;;;;;;6149387;23;20021;-65
2022/08/05 10:14:45;;;;;;;7.47;1.27;;;;;;;;;;6150670;23;20471;-69
2022/08/05 10:17:13;;;;;;;4.13;1.35;;;;;;;;;;6150037;23;20025;-58
2022/08/05 10:20:06;;;;;;;9.75;1.42;;;;;;;;;;6149399;23;20030;-57
2022/08/05 10:22:38;;;;;;;5.38;1.33;;;;;;;;;;6149694;23;20025;-58
2022/08/05 10:25:29;;;;;;;6.85;1.33;;;;;;;;;;6149190;23;20026;-56
2022/08/05 10:28:05;;;;;;;10.15;1.42;;;;;;;;;;6149151;23;20022;-56
2022/08/05 10:30:55;;;;;;;5.03;1.10;;;;;;;;;;6150426;23;20112;-65
2022/08/05 10:33:43;;;;;;;5.38;1.00;;;;;;;;;;6149931;23;20053;-65
2022/08/05 10:36:20;;;;;;;5.78;1.25;;;;;;;;;;6150140;23;20333;-68
2022/08/05 10:38:56;;;;;;;4.68;1.10;;;;;;;;;;6150313;23;20025;-68
2022/08/05 10:41:42;;;;;;;8.63;1.13;;;;;;;;;;6148878;23;20104;-68
2022/08/05 10:44:15;;;;;;;6.82;1.13;;;;;;;;;;6150939;23;20028;-67
2022/08/05 10:46:50;;;;;;;7.97;1.40;;;;;;;;;;6149439;23;20021;-68
2022/08/05 10:49:22;;;;;;;4.82;0.95;;;;;;;;;;6122698;23;20320;-67
2022/08/05 10:52:01;;;;;;;7.25;1.33;;;;;;;;;;6148588;23;20021;-46
2022/08/05 10:54:50;;;;;;;3.90;0.98;;;;;;;;;;6148977;23;20191;-50
2022/08/05 10:57:27;;;;;;;4.05;1.35;;;;;;;;;;6148902;23;20029;-48
2022/08/05 11:00:08;;;;;;;5.75;1.33;;;;;;;;;;6150515;23;20022;-52
2022/08/05 11:03:06;;;;;;;2.97;0.75;;;;;;;;;;6148765;23;20072;-53
2022/08/05 11:06:06;;;;;;;6.32;0.90;;;;;;;;;;6149889;23;20116;-54
2022/08/05 11:09:09;;;;;;;5.70;0.90;;;;;;;;;;6149973;23;20486;-60
2022/08/05 11:11:48;;;;;;;4.50;0.80;;;;;;;;;;6148198;23;20026;-60
2022/08/05 11:14:23;;;;;;;3.90;1.10;;;;;;;;;;6150350;23;20048;-60
2022/08/05 11:17:10;;;;;;;;;;;;;;;;;;6149589;23;20151;-60
2022/08/05 11:20:06;;;;;;;4.57;1.05;;;;;;;;;;6148668;23;19916;-60
2022/08/05 11:22:47;;;;;;;1.60;0.68;;;;;;;;;;6149712;23;20025;-60
2022/08/05 11:25:48;;;;;;;6.82;0.85;;;;;;;;;;6148933;23;20033;-60
2022/08/05 11:28:34;;;;;;;3.92;1.35;;;;;;;;;;6150350;23;20022;-59
2022/08/05 11:31:08;;;;;;;5.75;0.93;;;;;;;;;;6148721;23;20029;-65
2022/08/05 11:33:48;;;;;;;5.63;0.77;;;;;;;;;;6148569;23;20102;-65
2022/08/05 11:36:45;;;;;;;4.90;1.13;;;;;;;;;;6149422;23;20025;-65
2022/08/05 11:39:39;;;;;;;4.07;0.98;;;;;;;;;;6150087;23;20029;-65
2022/08/05 11:42:15;;;;;;;4.30;0.88;;;;;;;;;;6123626;23;20075;-65
2022/08/05 11:44:45;;;;;;;4.38;0.98;;;;;;;;;;6148551;23;20017;-67
2022/08/05 11:47:21;;;;;;;3.97;0.70;;;;;;;;;;6148670;23;20025;-48
2022/08/05 11:50:15;;;;;;;3.58;1.08;;;;;;;;;;6147673;23;20022;-45
2022/08/05 11:52:42;;;;;;;2.13;0.98;;;;;;;;;;6147817;23;20530;-52
2022/08/05 11:55:23;;;;;;;3.58;1.00;;;;;;;;;;6150147;23;20095;-48
2022/08/05 11:58:02;;;;;;;5.03;1.00;;;;;;;;;;6148329;23;20101;-51
2022/08/05 12:00:39;;;;;;;3.10;0.90;;;;;;;;;;6149298;23;20367;-47
2022/08/05 12:03:16;;;;;;;4.03;0.60;;;;;;;;;;6147097;23;20017;-65
2022/08/05 12:06:07;;;;;;;7.70;0.80;;;;;;;;;;6150215;23;20092;-48
2022/08/05 12:08:43;;;;;;;5.28;1.00;;;;;;;;;;6147693;23;20742;-50
2022/08/05 12:11:19;;;;;;;4.05;1.88;;;;;;;;;;6149855;23;20028;-52
2022/08/05 12:13:58;;;;;;;2.45;0.80;;;;;;;;;;6148457;23;20030;-50
2022/08/05 12:16:34;;;;;;;4.95;1.10;;;;;;;;;;6148073;23;20096;-48
2022/08/05 12:19:05;;;;;;;2.78;0.80;;;;;;;;;;6148801;23;20463;-49
2022/08/05 12:21:35;;;;;;;1.25;0.60;;;;;;;;;;6149955;23;20022;-47
2022/08/05 12:24:14;;;;;;;3.25;0.80;;;;;;;;;;6149701;23;20025;-57
2022/08/05 12:26:51;;;;;;;4.30;0.80;;;;;;;;;;6149491;23;20105;-57
2022/08/05 12:29:36;;;;;;;5.30;0.80;;;;;;;;;;6148807;23;20486;-58
2022/08/05 12:32:05;;;;;;;3.53;0.82;;;;;;;;;;6122755;23;20509;-58
2022/08/05 12:34:40;;;;;;;2.35;0.63;;;;;;;;;;6148915;23;20047;-58
2022/08/05 12:37:11;;;;;;;4.05;0.75;;;;;;;;;;6123527;23;20767;-57
2022/08/05 12:39:49;;;;;;;5.97;0.98;;;;;;;;;;6148525;23;20049;-61
2022/08/05 12:42:37;;;;;;;4.68;1.48;;;;;;;;;;6150048;23;20025;-62
2022/08/05 12:45:14;;;;;;;2.85;0.70;;;;;;;;;;6149478;23;20072;-63
2022/08/05 12:48:15;;;;;;;1.85;0.50;;;;;;;;;;6147716;23;20028;-62
2022/08/05 12:51:19;;;;;;;4.32;0.50;;;;;;;;;;6145915;23;20021;-62
2022/08/05 12:54:22;;;;;;;5.15;1.08;;;;;;;;;;6145974;23;20430;-62
2022/08/05 12:57:00;;;;;;;3.40;0.60;;;;;;;;;;6149296;23;20088;-61
2022/08/05 12:59:54;;;;;;;1.38;0.40;;;;;;;;;;6150725;23;20017;-58
2022/08/05 13:02:42;;;;;;;1.40;0.63;;;;;;;;;;6148520;23;20104;-60
2022/08/05 13:05:22;;;;;;;1.63;0.63;;;;;;;;;;6150298;23;20025;-60
2022/08/05 13:07:49;;;;;;;3.00;0.60;;;;;;;;;;6149563;23;20025;-60
2022/08/05 13:10:28;;;;;;;1.25;0.60;;;;;;;;;;6149195;23;20022;-60
2022/08/05 13:12:55;;;;;;;0.82;0.50;;;;;;;;;;6148737;23;20021;-59
2022/08/05 13:15:29;;;;;;;2.75;0.95;;;;;;;;;;6150199;23;20049;-60
2022/08/05 13:18:20;;;;;;;5.30;0.70;;;;;;;;;;6149600;23;20078;-65
2022/08/05 13:20:50;;;;;;;7.45;0.70;;;;;;;;;;6149198;23;20447;-62
2022/08/05 13:23:24;;;;;;;1.23;0.70;;;;;;;;;;6150737;23;20021;-62
2022/08/05 13:25:59;;;;;;;1.35;0.60;;;;;;;;;;6148619;23;20032;-62
2022/08/05 13:28:39;;;;;;;2.13;0.80;;;;;;;;;;6150271;23;20021;-61
2022/08/05 13:31:10;;;;;;;4.57;0.45;;;;;;;;;;6149393;23;20100;-62
2022/08/05 13:34:00;;;;;;;2.67;0.60;;;;;;;;;;6148409;23;20346;-61
2022/08/05 13:36:47;;;;;;;1.48;0.60;;;;;;;;;;6148893;23;20425;-60
2022/08/05 13:39:21;;;;;;;2.50;0.70;;;;;;;;;;6149983;23;20661;-64
2022/08/05 13:42:09;;;;;;;1.27;0.50;;;;;;;;;;6147781;23;20071;-64
2022/08/05 13:44:44;;;;;;;1.52;0.50;;;;;;;;;;6146466;23;20575;-65
2022/08/05 13:47:13;;;;;;;3.28;0.60;;;;;;;;;;6146499;23;20022;-65
2022/08/05 13:50:01;;;;;;;2.75;0.80;;;;;;;;;;6145220;23;20100;-65
2022/08/05 13:52:42;;;;;;;2.38;0.73;;;;;;;;;;6146836;23;20025;-64
2022/08/05 13:55:10;;;;;;;1.85;0.77;;;;;;;;;;6147571;23;20410;-57
2022/08/05 13:58:04;;;;;;;1.60;0.80;;;;;;;;;;6144733;23;20120;-48
2022/08/05 14:00:35;;;;;;;1.42;0.60;;;;;;;;;;6145741;23;20029;-46
2022/08/05 14:03:15;;;;;;;1.52;0.63;;;;;;;;;;6146871;23;20021;-48
2022/08/05 14:05:42;;;;;;;3.83;0.70;;;;;;;;;;6146810;23;20021;-47
2022/08/05 14:08:43;;;;;;;2.70;0.80;;;;;;;;;;6145217;23;20481;-47
2022/08/05 14:11:10;;;;;;;2.40;0.85;;;;;;;;;;6146569;23;20062;-48
2022/08/05 14:13:47;;;;;;;3.47;0.97;;;;;;;;;;6146326;23;20370;-58
2022/08/05 14:16:24;;;;;;;2.58;0.80;;;;;;;;;;6146470;23;20052;-64
2022/08/05 14:18:58;;;;;;;1.43;0.60;;;;;;;;;;6145619;23;20054;-63
2022/08/05 14:21:30;;;;;;;2.92;0.65;;;;;;;;;;6145538;23;20100;-64
2022/08/05 14:24:18;;;;;;;2.78;0.70;;;;;;;;;;6122350;23;20112;-64
2022/08/05 14:26:58;;;;;;;2.30;0.70;;;;;;;;;;6144846;23;20515;-64
2022/08/05 14:29:44;;;;;;;3.28;0.98;;;;;;;;;;6145132;23;20454;-60
2022/08/05 14:32:18;;;;;;;4.68;0.45;;;;;;;;;;6145329;23;20077;-60
2022/08/05 14:34:53;;;;;;;1.80;0.60;;;;;;;;;;6149142;23;20048;-67
2022/08/05 14:37:37;;;;;;;3.63;0.60;;;;;;;;;;6148920;23;20339;-66
2022/08/05 14:40:15;;;;;;;4.03;0.75;;;;;;;;;;6146708;23;20138;-67
2022/08/05 14:42:50;;;;;;;0.70;0.43;;;;;;;;;;6147601;23;20021;-66
2022/08/05 14:45:18;;;;;;;1.65;0.55;;;;;;;;;;6148439;23;20367;-66
2022/08/05 14:47:47;;;;;;;3.80;0.70;;;;;;;;;;6148254;23;20025;-66
2022/08/05 14:50:32;;;;;;;4.70;0.80;;;;;;;;;;6149132;23;20355;-59
2022/08/05 14:53:07;;;;;;;2.25;0.73;;;;;;;;;;6146483;23;20463;-64
2022/08/05 14:55:41;;;;;;;2.53;0.90;;;;;;;;;;6146394;23;20022;-63
2022/08/05 14:58:09;;;;;;;3.05;0.93;;;;;;;;;;6144937;23;20026;-64
2022/08/05 15:00:40;;;;;;;2.60;0.75;;;;;;;;;;6146264;23;20021;-64
2022/08/05 15:03:27;;;;;;;4.40;1.13;;;;;;;;;;6145649;23;20363;-63
2022/08/05 15:05:59;;;;;;;5.63;0.70;;;;;;;;;;6146279;23;20032;-63
2022/08/05 15:08:42;;;;;;;4.60;0.82;;;;;;;;;;6145234;23;20032;-50
2022/08/05 15:11:29;;;;;;;4.87;0.50;;;;;;;;;;6144582;23;20032;-63
2022/08/05 15:14:19;;;;;;;4.55;0.80;;;;;;;;;;6144236;23;20035;-63
2022/08/05 15:17:08;;;;;;;1.85;0.80;;;;;;;;;;6149437;23;20021;-63
2022/08/05 15:20:02;;;;;;;1.83;0.70;;;;;;;;;;6147210;23;20108;-63
2022/08/05 15:22:29;;;;;;;3.78;1.00;;;;;;;;;;6148046;23;20080;-63
2022/08/05 15:25:17;;;;;;;2.70;0.80;;;;;;;;;;6144910;23;20029;-61
2022/08/05 15:28:11;;;;;;;1.75;0.75;;;;;;;;;;6146095;23;20021;-61
2022/08/05 15:30:48;;;;;;;2.90;0.80;;;;;;;;;;6146163;23;20033;-61
2022/08/05 15:33:19;;;;;;;5.10;0.70;;;;;;;;;;6144034;23;20021;-61
2022/08/05 15:36:13;;;;;;;3.05;0.82;;;;;;;;;;6145411;23;20076;-61
2022/08/05 15:38:50;;;;;;;6.18;0.90;;;;;;;;;;6144690;23;20100;-61
2022/08/05 15:41:47;;;;;;;1.95;0.77;;;;;;;;;;6145707;23;20077;-61
2022/08/05 15:44:25;;;;;;;4.13;1.17;;;;;;;;;;6146821;23;20029;-66
2022/08/05 15:47:03;;;;;;;4.10;1.25;;;;;;;;;;6150896;23;20021;-63
2022/08/05 15:49:30;;;;;;;4.47;1.05;;;;;;;;;;6149837;23;20053;-63